Colome, South Dakota
Current Conditions -  °F | °C
As of 11:53 PM on Friday 19 Dec 2014 (Local Time) from KICR Reporting Station
Clear Clear  
Wind Chill: 20°   Ceiling: Unl
Heat Index: 27°   Visibility: 10mi
Dew Point: 20°   Wind: 6mph
Humidity: 75%   Direction: 240°WSW
Pressure: 29.98"   Gusts: NA
Location:  43.26°N, 99.72°W
Report Text: KICR 200553Z AUTO 24005KT 10SM CLR M03/M07 A2998 RMK AO2 SLP174 T10281067 10006 21044 400391072 55001
Loading
Personal Weather Stations






























Interactive Weather Map New forecast layout! Learn more

10-Day Weather Forecast

Advertisements
Track Severe Weather on mobile